This is the latest recevied weather packets stored in our database for station/object KB3KAV. If no packets are shown the sender has not sent any weather packets the latest 10 day(s).
| Time | Temp. | Humidity | Pressure | Rain* | Wind** | Luminosity | Snow |
|---|---|---|---|---|---|---|---|
| 1788099431 | 19.44° C | 85% | 1050.8 hPa | 0 mm | - | 205 W/m² | - |
| 1788098827 | 19.44° C | 84% | 1050.9 hPa | 0 mm | - | 169 W/m² | - |
| 1788098223 | 18.89° C | 85% | 1050.8 hPa | 0 mm | - | 123 W/m² | - |
| 1788097620 | 18.33° C | 88% | 1051 hPa | 0 mm | - | 124 W/m² | - |
| 1788097016 | 18.33° C | 86% | 1050.9 hPa | 0 mm | - | 272 W/m² | - |
| 1788096413 | 17.22° C | 88% | 1050.8 hPa | 0 mm | - | 140 W/m² | - |
| 1788095813 | 16.67° C | 89% | 1051.2 hPa | 0 mm | - | 101 W/m² | - |
| 1788095208 | 17.22° C | 88% | 1051.2 hPa | 0 mm | - | 66 W/m² | - |
| 1788094608 | 16.67° C | 87% | 1051.1 hPa | 0 mm | - | 103 W/m² | - |
| 1788094007 | 16.11° C | 91% | 1051.2 hPa | 0 mm | - | 268 W/m² | - |
| 1788093405 | 15.56° C | 92% | 1051.2 hPa | 0 mm | - | 111 W/m² | - |
| 1788092803 | 15.56° C | 91% | 1051.3 hPa | 0 mm | - | 85 W/m² | - |
| 1788092201 | 14.44° C | 95% | 1051.3 hPa | 0 mm | - | 139 W/m² | - |
| 1788091601 | 13.89° C | 95% | 1051.5 hPa | 0 mm | - | 70 W/m² | - |
| 1788090999 | 13.33° C | 95% | 1051.6 hPa | 0 mm | - | 36 W/m² | - |
| 1788090397 | 13.33° C | 95% | 1051.7 hPa | 0 mm | - | 42 W/m² | - |
| 1788089792 | 13.33° C | 95% | 1051.5 hPa | 0 mm | - | 47 W/m² | - |
| 1788089189 | 12.78° C | 95% | 1051.6 hPa | 0 mm | - | 19 W/m² | - |
| 1788088587 | 12.78° C | 95% | 1051.4 hPa | 0 mm | - | 30 W/m² | - |
| 1788087982 | 12.78° C | 95% | 1051.7 hPa | 0 mm | - | 14 W/m² | - |
| 1788087378 | 12.22° C | 95% | 1051.9 hPa | 0 mm | - | 15 W/m² | - |
| 1788086777 | 12.22° C | 95% | 1051.6 hPa | 0 mm | - | 8 W/m² | - |
| 1788086172 | 12.22° C | 95% | 1051.6 hPa | 0 mm | - | 3 W/m² | - |
| 1788085572 | 12.22° C | 95% | 1051.8 hPa | 0 mm | - | 0 W/m² | - |
| 1788084969 | 12.22° C | 95% | 1051.8 hPa | 0 mm | - | 0 W/m² | - |
* Rain latest hour (hover to see other rain measurements)
** Current wind speed in m/s (hover to see current wind gust speed)